Time;durP1;ratioP1;P1;durP2;ratioP2;P2;SDS_P1;SDS_P2;PMS_P1;PMS_P2;Temp;Humidity;BMP_temperature;BMP_pressure;BME280_temperature;BME280_humidity;BME280_pressure;Samples;Min_cycle;Max_cycle;Signal;HPM_P1;HPM_P2
2022/03/05 00:02:24;;;;;;;8.37;6.43;;;-0.70;87.70;;;;;;5051804;28;20480;-47
2022/03/05 00:04:53;;;;;;;8.70;6.13;;;-0.70;88.00;;;;;;5051904;28;20480;-45
2022/03/05 00:07:20;;;;;;;9.47;6.60;;;-0.50;89.20;;;;;;5052187;28;20469;-45
2022/03/05 00:09:47;;;;;;;7.63;5.60;;;-0.50;87.70;;;;;;5051836;28;20487;-45
2022/03/05 00:12:14;;;;;;;7.30;5.50;;;-0.50;87.70;;;;;;5052088;28;20544;-45
2022/03/05 00:14:42;;;;;;;8.27;6.10;;;-0.40;87.70;;;;;;5051721;28;20527;-45
2022/03/05 00:17:09;;;;;;;9.70;6.90;;;-0.40;86.90;;;;;;5051616;28;20472;-45
2022/03/05 00:19:36;;;;;;;8.40;6.03;;;-0.20;87.20;;;;;;5051344;28;20953;-45
2022/03/05 00:22:04;;;;;;;10.13;6.63;;;-0.30;86.30;;;;;;5051923;28;20452;-45
2022/03/05 00:24:31;;;;;;;7.90;6.00;;;-0.70;86.10;;;;;;5052040;28;20568;-47
2022/03/05 00:26:59;;;;;;;6.60;5.73;;;-0.60;87.40;;;;;;5051576;28;20461;-45
2022/03/05 00:29:26;;;;;;;10.27;6.83;;;-0.80;87.00;;;;;;5051163;28;20473;-45
2022/03/05 00:31:53;;;;;;;8.30;5.80;;;-0.80;87.80;;;;;;5051512;28;20484;-45
2022/03/05 00:34:20;;;;;;;7.70;6.27;;;-0.80;87.70;;;;;;5051679;28;20480;-45
2022/03/05 00:36:46;;;;;;;10.47;6.73;;;-0.90;87.70;;;;;;5051770;28;20500;-47
2022/03/05 00:39:15;;;;;;;7.80;5.93;;;-1.00;88.00;;;;;;5051586;28;20483;-45
2022/03/05 00:41:42;;;;;;;8.47;6.67;;;-1.00;88.30;;;;;;5051384;28;20582;-46
2022/03/05 00:44:09;;;;;;;10.00;7.03;;;-1.10;87.90;;;;;;5051397;28;20510;-45
2022/03/05 00:46:36;;;;;;;10.07;7.50;;;-0.80;89.00;;;;;;5051385;28;20463;-45
2022/03/05 00:49:03;;;;;;;7.70;6.27;;;-0.60;88.50;;;;;;5050718;28;20476;-48
2022/03/05 00:51:30;;;;;;;7.77;6.40;;;-0.40;87.90;;;;;;5051149;28;20494;-45
2022/03/05 00:53:57;;;;;;;9.30;6.47;;;-0.30;86.60;;;;;;5050224;28;20480;-47
2022/03/05 00:56:26;;;;;;;8.20;6.50;;;-0.20;86.60;;;;;;5051579;28;20493;-45
2022/03/05 00:58:53;;;;;;;9.40;6.43;;;-0.20;86.20;;;;;;5050944;28;20481;-45
2022/03/05 01:01:20;;;;;;;6.80;5.93;;;-0.30;86.40;;;;;;5051332;28;20479;-47
2022/03/05 01:03:47;;;;;;;10.33;7.30;;;-0.20;85.40;;;;;;5051398;28;20512;-45
2022/03/05 01:06:14;;;;;;;9.17;5.77;;;-0.30;85.40;;;;;;5051162;28;20472;-46
2022/03/05 01:08:40;;;;;;;8.60;5.60;;;-0.50;85.10;;;;;;5051100;28;20483;-45
2022/03/05 01:11:08;;;;;;;9.70;6.03;;;-0.70;85.70;;;;;;5050702;28;20846;-45
2022/03/05 01:13:37;;;;;;;8.40;6.00;;;-0.80;86.80;;;;;;5051376;28;20441;-45
2022/03/05 01:16:04;;;;;;;8.60;6.30;;;-0.70;87.30;;;;;;5051036;28;20502;-45
2022/03/05 01:18:31;;;;;;;7.50;6.03;;;-0.80;86.90;;;;;;5051078;28;20520;-45
2022/03/05 01:20:58;;;;;;;8.27;6.77;;;-0.70;87.30;;;;;;5050808;28;20583;-45
2022/03/05 01:23:25;;;;;;;12.13;6.93;;;-0.60;87.40;;;;;;5051403;28;20564;-45
2022/03/05 01:25:52;;;;;;;9.13;6.00;;;-0.50;87.80;;;;;;5050910;28;20475;-45
2022/03/05 01:28:19;;;;;;;7.93;5.97;;;-0.60;86.60;;;;;;5051258;28;20453;-45
2022/03/05 01:30:47;;;;;;;8.70;6.27;;;-1.30;84.70;;;;;;5051080;28;20857;-45
2022/03/05 01:33:15;;;;;;;7.73;6.03;;;-1.90;86.20;;;;;;5050868;28;20976;-45
2022/03/05 01:35:42;;;;;;;7.83;6.60;;;-2.20;87.60;;;;;;5050920;28;20473;-48
2022/03/05 01:38:09;;;;;;;6.80;5.63;;;-2.30;88.20;;;;;;5050777;28;20486;-45
2022/03/05 01:40:36;;;;;;;6.90;5.63;;;-2.20;88.50;;;;;;5050664;28;20475;-45
2022/03/05 01:43:03;;;;;;;9.87;6.10;;;-2.00;89.20;;;;;;5050846;28;20565;-45
2022/03/05 01:45:31;;;;;;;9.63;5.90;;;-2.00;88.90;;;;;;5051045;28;20476;-45
2022/03/05 01:47:59;;;;;;;7.20;5.87;;;-1.70;89.20;;;;;;5050438;28;21015;-44
2022/03/05 01:50:27;;;;;;;8.30;6.10;;;-1.30;89.10;;;;;;5050552;28;20479;-45
2022/03/05 01:52:54;;;;;;;6.30;5.70;;;-1.10;89.00;;;;;;5050980;28;20850;-45
2022/03/05 01:55:21;;;;;;;7.60;5.03;;;-1.40;86.70;;;;;;5050914;28;20446;-45
2022/03/05 01:57:48;;;;;;;11.43;6.00;;;-1.70;86.90;;;;;;5051136;28;20546;-46
2022/03/05 02:00:15;;;;;;;9.30;6.30;;;-1.80;87.50;;;;;;5050651;28;20496;-46
2022/03/05 02:02:43;;;;;;;8.33;6.10;;;-1.60;87.00;;;;;;5050567;28;20492;-45
2022/03/05 02:05:12;;;;;;;8.27;6.67;;;-1.50;88.20;;;;;;5052496;28;20571;-46
2022/03/05 02:07:39;;;;;;;9.00;6.50;;;-1.30;89.00;;;;;;5054121;28;20463;-45
2022/03/05 02:10:08;;;;;;;8.03;6.73;;;-1.20;88.60;;;;;;5054104;28;20472;-45
2022/03/05 02:12:36;;;;;;;7.10;5.67;;;-0.90;87.90;;;;;;5054251;28;20504;-45
2022/03/05 02:15:05;;;;;;;9.40;6.70;;;-0.80;86.60;;;;;;5054029;28;20442;-45
2022/03/05 02:17:32;;;;;;;7.40;5.73;;;-0.90;86.10;;;;;;5054187;28;20491;-45
2022/03/05 02:20:00;;;;;;;8.03;5.83;;;-0.90;86.50;;;;;;5054239;28;20473;-46
2022/03/05 02:22:28;;;;;;;8.60;5.90;;;-0.90;87.70;;;;;;5054236;28;20473;-45
2022/03/05 02:24:58;;;;;;;7.67;5.90;;;-0.80;86.90;;;;;;5053970;28;20565;-47
2022/03/05 02:27:25;;;;;;;8.00;6.83;;;-0.90;85.70;;;;;;5053772;28;20471;-46
2022/03/05 02:29:52;;;;;;;7.17;6.43;;;-1.30;84.70;;;;;;5053838;28;20531;-45
2022/03/05 02:32:19;;;;;;;5.90;5.13;;;-1.60;86.00;;;;;;5053669;28;20448;-47
2022/03/05 02:34:47;;;;;;;8.97;6.60;;;-1.90;87.70;;;;;;5054094;28;20467;-45
2022/03/05 02:37:15;;;;;;;9.60;7.20;;;-2.10;88.70;;;;;;5053346;28;20520;-47
2022/03/05 02:39:44;;;;;;;9.00;7.00;;;-2.40;89.70;;;;;;5053256;28;20960;-45
2022/03/05 02:42:13;;;;;;;8.23;6.20;;;-2.40;90.30;;;;;;5053624;28;20481;-45
2022/03/05 02:44:48;;;;;;;10.90;6.13;;;-2.20;90.40;;;;;;5053446;28;20485;-46
2022/03/05 02:47:15;;;;;;;6.63;5.50;;;-2.10;90.30;;;;;;5053443;28;20472;-45
2022/03/05 02:49:42;;;;;;;9.53;7.57;;;-2.10;89.60;;;;;;5053554;28;20508;-46
2022/03/05 02:52:09;;;;;;;7.10;6.40;;;-2.00;90.10;;;;;;5053586;28;20477;-44
2022/03/05 02:54:36;;;;;;;10.87;7.30;;;-2.10;90.00;;;;;;5053557;28;20901;-45
2022/03/05 02:57:05;;;;;;;11.13;7.83;;;-2.20;91.10;;;;;;5053269;28;20990;-45
2022/03/05 02:59:32;;;;;;;8.47;7.47;;;-2.30;91.80;;;;;;5052739;28;20475;-45
2022/03/05 03:01:59;;;;;;;8.50;5.80;;;-2.40;92.20;;;;;;5053383;28;20494;-45
2022/03/05 03:04:26;;;;;;;7.50;6.20;;;-2.40;91.80;;;;;;5052900;28;20479;-47
2022/03/05 03:06:53;;;;;;;8.93;6.30;;;-2.30;91.50;;;;;;5053478;28;20556;-44
2022/03/05 03:09:20;;;;;;;7.27;6.17;;;-2.00;91.40;;;;;;5052967;28;20445;-44
2022/03/05 03:11:47;;;;;;;12.97;8.60;;;-1.80;91.30;;;;;;5053172;28;20483;-45
2022/03/05 03:14:15;;;;;;;8.03;6.50;;;-1.50;91.10;;;;;;5052957;28;20939;-46
2022/03/05 03:16:42;;;;;;;10.50;6.60;;;-1.40;90.50;;;;;;5051838;28;20499;-46
2022/03/05 03:19:09;;;;;;;7.30;6.60;;;-1.30;88.90;;;;;;5052579;28;20546;-45
2022/03/05 03:21:36;;;;;;;7.50;6.77;;;-1.30;88.00;;;;;;5053056;28;20475;-45
2022/03/05 03:24:03;;;;;;;6.90;6.17;;;-1.20;88.30;;;;;;5052757;28;20519;-45
2022/03/05 03:26:30;;;;;;;9.17;6.37;;;-1.10;89.10;;;;;;5052846;28;20499;-45
2022/03/05 03:28:57;;;;;;;12.47;7.53;;;-1.00;88.80;;;;;;5052697;28;20506;-45
2022/03/05 03:31:26;;;;;;;7.67;6.50;;;-0.80;88.10;;;;;;5052876;28;20479;-45
2022/03/05 03:33:53;;;;;;;10.23;6.10;;;-0.80;87.20;;;;;;5052614;28;20448;-47
2022/03/05 03:36:20;;;;;;;10.47;6.93;;;-0.70;86.00;;;;;;5051593;28;20983;-44
2022/03/05 03:38:47;;;;;;;6.40;5.77;;;-0.90;84.70;;;;;;5052857;28;20483;-45
2022/03/05 03:41:14;;;;;;;7.60;5.93;;;-1.30;83.80;;;;;;5052299;28;20878;-45
2022/03/05 03:43:41;;;;;;;9.93;6.73;;;-1.80;84.60;;;;;;5052615;28;20516;-45
2022/03/05 03:46:08;;;;;;;8.10;6.77;;;-1.80;86.30;;;;;;5052489;28;20493;-47
2022/03/05 03:48:36;;;;;;;8.87;6.37;;;-1.60;87.90;;;;;;5052059;28;20875;-45
2022/03/05 03:51:03;;;;;;;6.70;6.00;;;-1.40;88.10;;;;;;5052227;28;20599;-45
2022/03/05 03:53:30;;;;;;;17.50;7.00;;;-1.40;87.60;;;;;;5052283;28;20535;-46
2022/03/05 03:55:58;;;;;;;7.40;6.63;;;-1.30;87.20;;;;;;5052419;28;20547;-44
2022/03/05 03:58:25;;;;;;;8.70;7.50;;;-1.30;87.20;;;;;;5052139;28;20482;-48
2022/03/05 04:00:52;;;;;;;7.67;6.97;;;-1.30;86.60;;;;;;5052095;28;20873;-44
2022/03/05 04:03:18;;;;;;;8.67;6.27;;;-1.40;85.90;;;;;;5052164;28;20476;-45
2022/03/05 04:05:47;;;;;;;7.07;5.73;;;-1.30;86.10;;;;;;5052001;28;20518;-44
2022/03/05 04:10:58;;;;;;;8.17;6.07;;;-1.50;85.60;;;;;;5051717;28;20540;-45
2022/03/05 04:13:25;;;;;;;8.47;7.23;;;-1.70;86.80;;;;;;5052099;28;20448;-45
2022/03/05 04:15:52;;;;;;;8.73;6.73;;;-2.00;87.50;;;;;;5051769;28;20484;-47
2022/03/05 04:18:19;;;;;;;7.57;6.10;;;-2.20;88.20;;;;;;5052274;28;20477;-45
2022/03/05 04:20:47;;;;;;;9.07;6.00;;;-2.40;89.10;;;;;;5051517;28;20556;-44
2022/03/05 04:23:14;;;;;;;7.60;5.63;;;-2.50;89.80;;;;;;5051609;28;20535;-48
2022/03/05 04:25:41;;;;;;;7.63;6.40;;;-2.60;90.10;;;;;;5051655;28;20522;-45
2022/03/05 04:28:08;;;;;;;9.03;6.27;;;-2.60;90.00;;;;;;5051539;28;20483;-45
2022/03/05 04:30:35;;;;;;;8.83;6.80;;;-2.50;90.10;;;;;;5051622;28;20472;-46
2022/03/05 04:33:02;;;;;;;12.33;6.20;;;-2.40;89.40;;;;;;5051673;28;20504;-44
2022/03/05 04:35:29;;;;;;;7.20;5.53;;;-2.40;89.70;;;;;;5051291;28;20859;-46
2022/03/05 04:37:57;;;;;;;11.77;6.70;;;-2.40;88.70;;;;;;5051164;28;20508;-45
2022/03/05 04:40:24;;;;;;;8.73;6.07;;;-2.50;88.90;;;;;;5051167;28;20487;-45
2022/03/05 04:42:51;;;;;;;8.27;6.20;;;-2.70;88.80;;;;;;5051568;28;20465;-47
2022/03/05 04:45:18;;;;;;;9.50;6.43;;;-2.90;90.10;;;;;;5051210;28;20884;-45
2022/03/05 04:47:45;;;;;;;7.67;6.47;;;-2.80;90.70;;;;;;5050854;28;20453;-44
2022/03/05 04:50:12;;;;;;;8.80;6.43;;;-2.80;90.60;;;;;;5051118;28;20523;-46
2022/03/05 04:52:39;;;;;;;10.50;6.27;;;-2.80;90.40;;;;;;5051289;28;20483;-45
2022/03/05 04:55:09;;;;;;;6.43;5.63;;;-2.60;90.30;;;;;;5051510;28;20474;-45
2022/03/05 04:57:36;;;;;;;7.47;6.23;;;-2.50;90.00;;;;;;5051018;28;20504;-45
2022/03/05 05:00:06;;;;;;;7.73;6.23;;;-2.60;89.50;;;;;;5051030;28;20496;-44
2022/03/05 05:02:33;;;;;;;11.33;6.90;;;-2.60;89.90;;;;;;5051193;28;20446;-45
2022/03/05 05:05:00;;;;;;;7.33;5.90;;;-2.60;90.20;;;;;;5051588;28;20514;-45
2022/03/05 05:07:27;;;;;;;7.50;6.00;;;-2.60;90.00;;;;;;5051321;28;20557;-44
2022/03/05 05:09:54;;;;;;;10.07;5.97;;;-2.40;90.00;;;;;;5051058;28;20473;-44
2022/03/05 05:12:23;;;;;;;10.50;6.37;;;-2.30;89.10;;;;;;5051449;28;20479;-46
2022/03/05 05:14:50;;;;;;;8.67;6.70;;;-2.30;88.20;;;;;;5051013;28;20443;-45
2022/03/05 05:17:17;;;;;;;8.37;6.03;;;-2.20;89.20;;;;;;5050818;28;20495;-45
2022/03/05 05:19:44;;;;;;;8.50;6.50;;;-2.00;88.60;;;;;;5050779;28;20860;-45
2022/03/05 05:22:11;;;;;;;9.87;6.87;;;-2.00;87.90;;;;;;5050988;28;20477;-45
2022/03/05 05:24:39;;;;;;;11.33;6.77;;;-1.90;88.20;;;;;;5050912;28;20503;-45
2022/03/05 05:27:06;;;;;;;6.87;5.23;;;-1.80;88.40;;;;;;5050927;28;20499;-44
2022/03/05 05:29:34;;;;;;;6.87;6.17;;;-1.90;88.70;;;;;;5050742;28;20445;-45
2022/03/05 05:32:01;;;;;;;10.40;7.77;;;-2.10;89.10;;;;;;5050671;28;20479;-45
2022/03/05 05:34:28;;;;;;;12.03;7.20;;;-2.20;88.10;;;;;;5051103;28;20461;-45
2022/03/05 05:36:55;;;;;;;10.53;6.47;;;-2.70;86.90;;;;;;5050432;28;20544;-45
2022/03/05 05:39:22;;;;;;;6.37;5.77;;;-3.00;88.00;;;;;;5051671;28;20469;-45
2022/03/05 05:41:49;;;;;;;7.80;6.47;;;-3.20;89.20;;;;;;5054832;28;20988;-45
2022/03/05 05:44:17;;;;;;;9.10;5.93;;;-3.30;89.60;;;;;;5054773;28;20960;-44
2022/03/05 05:46:45;;;;;;;10.03;6.50;;;-3.10;90.10;;;;;;5054514;28;20899;-46
2022/03/05 05:49:12;;;;;;;9.07;6.67;;;-2.80;90.70;;;;;;5053685;28;20799;-45
2022/03/05 05:51:39;;;;;;;13.40;8.23;;;-2.50;90.10;;;;;;5054443;28;20477;-45
2022/03/05 05:54:06;;;;;;;12.10;8.00;;;-2.20;90.00;;;;;;5054458;28;20964;-46
2022/03/05 05:56:33;;;;;;;16.43;8.50;;;-2.00;88.50;;;;;;5054616;28;20506;-45
2022/03/05 05:59:00;;;;;;;11.27;7.67;;;-1.90;87.40;;;;;;5054119;28;20483;-44
2022/03/05 06:01:27;;;;;;;8.37;7.47;;;-2.10;86.70;;;;;;5054650;28;20452;-45
2022/03/05 06:03:55;;;;;;;10.60;8.33;;;-2.10;86.60;;;;;;5054136;28;20473;-45
2022/03/05 06:06:23;;;;;;;9.33;6.77;;;-2.10;86.50;;;;;;5054148;28;20512;-44
2022/03/05 06:08:51;;;;;;;9.43;6.90;;;-2.30;86.50;;;;;;5054178;28;20477;-44
2022/03/05 06:11:18;;;;;;;7.17;6.33;;;-2.50;86.70;;;;;;5054326;28;20451;-44
2022/03/05 06:13:45;;;;;;;10.53;5.67;;;-2.50;87.80;;;;;;5054645;28;20444;-48
2022/03/05 06:16:12;;;;;;;7.60;6.80;;;-2.30;88.80;;;;;;5054322;28;20491;-45
2022/03/05 06:18:39;;;;;;;9.43;6.10;;;-2.30;88.20;;;;;;5054544;28;20946;-47
2022/03/05 06:21:08;;;;;;;9.60;7.77;;;-2.20;88.20;;;;;;5054312;28;20471;-45
2022/03/05 06:23:35;;;;;;;12.50;9.17;;;-2.40;88.00;;;;;;5054154;28;20815;-44
2022/03/05 06:26:03;;;;;;;12.43;9.63;;;-2.50;88.40;;;;;;5053937;28;20938;-45
2022/03/05 06:28:30;;;;;;;15.37;12.40;;;-2.60;89.00;;;;;;5054402;28;20446;-44
2022/03/05 06:30:57;;;;;;;23.37;17.30;;;-2.40;90.10;;;;;;5053770;28;20474;-44
2022/03/05 06:33:24;;;;;;;18.60;15.60;;;-2.20;90.10;;;;;;5054038;28;20479;-48
2022/03/05 06:35:51;;;;;;;11.03;9.80;;;-2.10;88.70;;;;;;5053677;28;20441;-44
2022/03/05 06:38:20;;;;;;;9.57;7.83;;;-2.20;87.80;;;;;;5138610;22;20462;-79
2022/03/05 06:40:48;;;;;;;12.93;8.30;;;-2.20;87.50;;;;;;5100673;28;20407;-79
2022/03/05 06:43:16;;;;;;;13.57;10.30;;;-2.20;87.90;;;;;;5100384;28;20421;-80
2022/03/05 06:45:44;;;;;;;14.20;11.57;;;-2.10;89.40;;;;;;5100646;28;20473;-80
2022/03/05 06:48:12;;;;;;;14.23;11.43;;;-2.00;89.60;;;;;;5100341;28;20440;-80
2022/03/05 06:50:39;;;;;;;12.93;9.30;;;-1.90;89.00;;;;;;5109098;22;20487;-46
2022/03/05 06:53:06;;;;;;;12.93;11.10;;;-1.90;88.40;;;;;;5094553;28;20542;-44
2022/03/05 06:55:35;;;;;;;15.80;9.53;;;-1.80;87.70;;;;;;5095509;28;20439;-44
2022/03/05 06:58:02;;;;;;;7.50;6.63;;;-1.70;87.70;;;;;;5094463;28;20520;-47
2022/03/05 07:00:29;;;;;;;9.17;8.20;;;-1.50;87.30;;;;;;5094987;28;20479;-45
2022/03/05 07:02:55;;;;;;;14.43;7.50;;;-1.40;86.60;;;;;;5094847;28;20446;-44
2022/03/05 07:05:23;;;;;;;10.67;6.40;;;-1.50;86.20;;;;;;5095613;28;20520;-45
2022/03/05 07:07:49;;;;;;;11.37;7.57;;;-1.70;84.70;;;;;;5094693;28;20494;-45
2022/03/05 07:10:16;;;;;;;8.77;7.30;;;-1.90;84.60;;;;;;5094548;28;20480;-46
2022/03/05 07:12:45;;;;;;;10.40;8.17;;;-2.00;84.60;;;;;;5094387;28;20519;-43
2022/03/05 07:15:11;;;;;;;11.10;8.03;;;-2.20;86.00;;;;;;5092741;28;20476;-44
2022/03/05 07:17:38;;;;;;;11.00;8.90;;;-2.20;86.90;;;;;;5091837;28;20894;-44
2022/03/05 07:20:07;;;;;;;7.27;6.57;;;-2.00;87.70;;;;;;5091871;28;20468;-44
2022/03/05 07:22:34;;;;;;;11.10;7.30;;;-2.10;87.30;;;;;;5093480;28;20456;-45
2022/03/05 07:25:01;;;;;;;10.60;7.10;;;-2.40;86.60;;;;;;5094011;28;20475;-44
2022/03/05 07:27:27;;;;;;;11.97;8.50;;;-2.90;87.40;;;;;;5093790;28;20500;-45
2022/03/05 07:29:56;;;;;;;10.23;7.87;;;-2.90;88.60;;;;;;5093074;28;20475;-44
2022/03/05 07:32:23;;;;;;;7.93;6.60;;;-2.90;88.70;;;;;;5093078;28;20485;-44
2022/03/05 07:34:50;;;;;;;7.33;6.60;;;-2.80;88.70;;;;;;5092926;28;21153;-44
2022/03/05 07:37:16;;;;;;;9.30;6.10;;;-2.80;88.60;;;;;;5091580;28;20557;-45
2022/03/05 07:39:43;;;;;;;7.07;6.37;;;-2.70;88.70;;;;;;5092554;28;20952;-44
2022/03/05 07:42:11;;;;;;;8.40;6.00;;;-2.50;88.70;;;;;;5092956;28;20474;-46
2022/03/05 07:44:38;;;;;;;9.87;6.70;;;-2.40;88.10;;;;;;5092554;28;20477;-44
2022/03/05 07:47:07;;;;;;;8.47;6.20;;;-2.30;87.60;;;;;;5092665;28;20546;-45
2022/03/05 07:49:34;;;;;;;8.17;6.40;;;-2.20;87.90;;;;;;5092874;28;20491;-44
2022/03/05 07:52:01;;;;;;;9.00;6.50;;;-2.20;88.20;;;;;;5093214;28;20453;-44
2022/03/05 07:54:28;;;;;;;9.70;6.50;;;-2.30;87.90;;;;;;5093913;28;20487;-45
2022/03/05 07:56:56;;;;;;;5.83;5.20;;;-2.40;87.20;;;;;;5093503;28;20439;-47
2022/03/05 07:59:23;;;;;;;6.50;5.77;;;-2.40;86.90;;;;;;5092725;28;20500;-44
2022/03/05 08:01:50;;;;;;;8.67;6.57;;;-2.30;87.40;;;;;;5092920;28;20471;-46
2022/03/05 08:04:18;;;;;;;9.60;6.10;;;-2.20;88.10;;;;;;5093545;28;20480;-44
2022/03/05 08:06:45;;;;;;;6.33;5.73;;;-2.10;87.80;;;;;;5093176;28;20558;-44
2022/03/05 08:09:12;;;;;;;11.60;6.83;;;-2.10;87.60;;;;;;5093007;28;20521;-45
2022/03/05 08:11:39;;;;;;;7.80;5.60;;;-1.90;87.20;;;;;;5093595;28;20834;-45
2022/03/05 08:14:06;;;;;;;8.87;6.07;;;-2.00;86.00;;;;;;5093125;28;20474;-46
2022/03/05 08:16:33;;;;;;;6.70;6.10;;;-2.40;85.50;;;;;;5092501;28;20476;-44
2022/03/05 08:19:00;;;;;;;8.93;6.20;;;-2.70;86.20;;;;;;5092363;28;20498;-44
2022/03/05 08:21:29;;;;;;;18.23;8.83;;;-2.90;87.20;;;;;;5092444;28;20985;-45
2022/03/05 08:23:57;;;;;;;21.37;10.60;;;-3.10;88.20;;;;;;5092176;28;20449;-44
2022/03/05 08:26:24;;;;;;;20.63;12.00;;;-3.10;89.60;;;;;;5092184;28;20522;-45
2022/03/05 08:28:52;;;;;;;18.23;10.90;;;-2.90;90.00;;;;;;5092689;28;20520;-46
2022/03/05 08:31:19;;;;;;;13.43;8.70;;;-2.90;90.00;;;;;;5093575;28;20482;-47
2022/03/05 08:33:46;;;;;;;12.97;8.50;;;-2.80;90.00;;;;;;5094130;28;20483;-45
2022/03/05 08:36:13;;;;;;;8.80;6.90;;;-2.80;90.10;;;;;;5094142;28;20931;-45
2022/03/05 08:38:41;;;;;;;10.70;5.93;;;-2.70;90.00;;;;;;5093945;28;20490;-44
2022/03/05 08:41:08;;;;;;;6.57;5.10;;;-2.60;90.40;;;;;;5094309;28;20472;-44
2022/03/05 08:43:35;;;;;;;6.57;5.37;;;-2.50;91.00;;;;;;5093758;28;20504;-44
2022/03/05 08:46:05;;;;;;;7.80;6.20;;;-2.20;91.20;;;;;;5093255;28;20587;-47
2022/03/05 08:48:32;;;;;;;11.93;7.70;;;-1.90;91.10;;;;;;5093713;28;20493;-44
2022/03/05 08:50:59;;;;;;;15.97;9.67;;;-1.60;90.80;;;;;;5092620;28;20507;-56
2022/03/05 08:53:26;;;;;;;11.90;8.77;;;-1.50;90.70;;;;;;5093270;28;20486;-44
2022/03/05 08:55:54;;;;;;;10.43;8.77;;;-1.40;90.80;;;;;;5093847;28;20760;-43
2022/03/05 08:58:21;;;;;;;10.30;8.97;;;-1.40;90.70;;;;;;5092854;28;20494;-45
2022/03/05 09:00:49;;;;;;;14.90;11.07;;;-1.40;90.90;;;;;;5093043;28;20460;-47
2022/03/05 09:03:17;;;;;;;22.40;11.80;;;-1.50;91.60;;;;;;5094363;28;20477;-45
2022/03/05 09:05:45;;;;;;;13.20;10.67;;;-1.50;91.40;;;;;;5093914;28;20509;-46
2022/03/05 09:08:12;;;;;;;13.63;8.83;;;-1.60;91.60;;;;;;5094631;28;20499;-44
2022/03/05 09:10:39;;;;;;;10.23;7.13;;;-1.60;90.50;;;;;;5093920;28;20562;-44
2022/03/05 09:13:08;;;;;;;11.47;7.33;;;-1.50;88.60;;;;;;5094034;28;20481;-45
2022/03/05 09:15:34;;;;;;;11.90;8.80;;;-1.40;89.40;;;;;;5096879;28;20474;-52
2022/03/05 09:18:02;;;;;;;8.60;7.70;;;-1.20;89.50;;;;;;5093866;28;20934;-44
2022/03/05 09:20:29;;;;;;;8.60;7.37;;;-1.10;87.70;;;;;;5077286;28;20926;-44
2022/03/05 09:22:56;;;;;;;14.33;7.93;;;-0.90;87.70;;;;;;5078131;28;20440;-45
2022/03/05 09:25:23;;;;;;;8.83;7.60;;;-0.70;86.80;;;;;;5076549;28;20490;-46
2022/03/05 09:27:50;;;;;;;9.17;7.00;;;-0.50;85.20;;;;;;5077891;28;20471;-44
2022/03/05 09:30:18;;;;;;;9.00;7.70;;;-0.40;83.00;;;;;;5077228;28;20753;-44
2022/03/05 09:32:45;;;;;;;10.03;7.50;;;-0.20;83.00;;;;;;5077363;28;20479;-46
2022/03/05 09:35:12;;;;;;;9.17;8.30;;;0.00;82.30;;;;;;5078253;28;20885;-45
2022/03/05 09:37:40;;;;;;;9.33;8.20;;;0.00;83.80;;;;;;5077758;28;20464;-44
2022/03/05 09:40:09;;;;;;;10.20;8.80;;;0.00;82.50;;;;;;5076849;28;20471;-44
2022/03/05 09:42:36;;;;;;;12.57;8.80;;;0.00;82.60;;;;;;5076253;28;20452;-45
2022/03/05 09:45:04;;;;;;;9.83;8.00;;;0.20;82.90;;;;;;5075848;28;20443;-44
2022/03/05 09:47:33;;;;;;;11.53;8.37;;;0.20;80.90;;;;;;5076114;28;21004;-45
2022/03/05 09:50:05;;;;;;;10.53;7.67;;;0.40;80.40;;;;;;5076526;28;20933;-44
2022/03/05 09:52:32;;;;;;;12.03;8.23;;;0.60;77.40;;;;;;5077310;28;20447;-44
2022/03/05 09:54:59;;;;;;;11.43;7.40;;;0.50;79.10;;;;;;5077443;28;20478;-45
2022/03/05 09:57:26;;;;;;;8.77;7.70;;;0.50;81.30;;;;;;5077300;28;20491;-44
2022/03/05 09:59:53;;;;;;;9.13;7.60;;;0.50;82.80;;;;;;5077015;28;20482;-48
2022/03/05 10:02:20;;;;;;;11.63;7.77;;;0.60;80.20;;;;;;5094886;28;20459;-45
2022/03/05 10:04:48;;;;;;;10.13;8.00;;;0.70;79.70;;;;;;5095586;28;20475;-45
2022/03/05 10:07:17;;;;;;;12.43;7.80;;;0.70;78.20;;;;;;5095416;28;20494;-44
2022/03/05 10:09:45;;;;;;;10.80;7.40;;;1.00;78.20;;;;;;5095163;28;20439;-47
2022/03/05 10:12:31;;;;;;;10.00;7.90;;;0.90;80.10;;;;;;5096761;28;20451;-47
2022/03/05 10:15:12;;;;;;;11.23;8.10;;;1.00;79.00;;;;;;5094945;28;20526;-45
2022/03/05 10:17:53;;;;;;;14.20;8.17;;;1.20;79.80;;;;;;5096068;28;20502;-44
2022/03/05 10:20:22;;;;;;;11.07;7.90;;;1.30;81.90;;;;;;5094984;28;20815;-44
2022/03/05 10:23:01;;;;;;;13.13;7.40;;;1.60;79.30;;;;;;5096782;28;20474;-45
2022/03/05 10:25:34;;;;;;;9.70;8.17;;;1.80;76.90;;;;;;5094864;28;20467;-44
2022/03/05 10:28:07;;;;;;;11.37;8.03;;;1.90;76.00;;;;;;5096455;28;20825;-45
2022/03/05 10:30:36;;;;;;;9.23;7.90;;;2.10;76.70;;;;;;5095745;28;20478;-45
2022/03/05 10:33:04;;;;;;;10.37;7.70;;;2.20;75.20;;;;;;5096154;28;20444;-48
2022/03/05 10:35:32;;;;;;;10.80;8.70;;;1.90;72.80;;;;;;5095476;28;20471;-44
2022/03/05 10:37:59;;;;;;;8.77;7.87;;;1.90;75.50;;;;;;5095282;28;20464;-46
2022/03/05 10:40:28;;;;;;;10.80;8.30;;;1.90;76.80;;;;;;5096230;28;20443;-46
2022/03/05 10:42:58;;;;;;;12.27;8.40;;;1.90;77.30;;;;;;5096416;28;20865;-44
2022/03/05 10:45:25;;;;;;;9.87;7.50;;;1.90;75.40;;;;;;5089413;28;20477;-45
2022/03/05 10:47:52;;;;;;;12.50;8.30;;;2.10;73.80;;;;;;5087764;28;20504;-45
2022/03/05 10:50:23;;;;;;;9.70;7.43;;;2.20;76.90;;;;;;5087847;28;20480;-44
2022/03/05 10:52:52;;;;;;;9.67;8.43;;;2.50;77.90;;;;;;5090669;28;20471;-46
2022/03/05 10:55:21;;;;;;;8.40;6.83;;;3.00;79.00;;;;;;5081856;28;20441;-46
2022/03/05 10:58:02;;;;;;;10.23;9.03;;;3.20;77.70;;;;;;5092235;28;20461;-44
2022/03/05 11:00:29;;;;;;;9.90;8.10;;;3.20;77.20;;;;;;5082640;28;20575;-45
2022/03/05 11:02:58;;;;;;;10.50;8.50;;;3.20;74.90;;;;;;5091038;28;20474;-45
2022/03/05 11:05:25;;;;;;;10.90;7.33;;;2.90;71.90;;;;;;5080482;28;20447;-46
2022/03/05 11:07:54;;;;;;;11.40;7.87;;;2.80;71.50;;;;;;5082555;28;20486;-45
2022/03/05 11:10:24;;;;;;;13.77;7.40;;;2.90;72.00;;;;;;5095332;28;20998;-45
2022/03/05 11:12:56;;;;;;;8.97;7.07;;;3.30;77.90;;;;;;5086020;28;20502;-44
2022/03/05 11:15:23;;;;;;;8.67;6.97;;;3.30;72.30;;;;;;5086982;28;20459;-47
2022/03/05 11:17:51;;;;;;;9.30;7.70;;;3.30;70.30;;;;;;5082264;28;20451;-45
2022/03/05 11:20:18;;;;;;;7.93;6.93;;;3.20;71.70;;;;;;5090030;28;20465;-44
2022/03/05 11:22:49;;;;;;;10.10;7.73;;;3.40;70.80;;;;;;5076251;28;20485;-46
2022/03/05 11:25:20;;;;;;;8.10;6.63;;;3.50;73.00;;;;;;5090899;28;20453;-44
2022/03/05 11:27:56;;;;;;;8.30;6.93;;;3.50;69.00;;;;;;5094833;28;20561;-49
2022/03/05 11:30:24;;;;;;;8.57;6.30;;;3.20;68.80;;;;;;5075612;28;20471;-44
2022/03/05 11:32:52;;;;;;;10.87;8.87;;;3.30;71.30;;;;;;5082073;28;20939;-45
2022/03/05 11:35:23;;;;;;;15.60;9.10;;;3.60;76.90;;;;;;5095701;28;20994;-44
2022/03/05 11:37:51;;;;;;;13.67;7.80;;;3.90;77.60;;;;;;5089959;28;20494;-46
2022/03/05 11:40:35;;;;;;;9.67;8.33;;;4.00;73.30;;;;;;5089478;28;20469;-45
2022/03/05 11:43:20;;;;;;;8.80;7.63;;;4.00;73.20;;;;;;5090539;28;20525;-47
2022/03/05 11:45:56;;;;;;;9.47;7.67;;;4.10;74.10;;;;;;5084667;28;20477;-45
2022/03/05 11:48:30;;;;;;;9.83;8.30;;;4.10;71.60;;;;;;5082141;28;20451;-45
2022/03/05 11:50:59;;;;;;;11.20;8.10;;;4.10;72.30;;;;;;5089610;28;20499;-45
2022/03/05 11:53:27;;;;;;;19.30;8.63;;;4.20;71.80;;;;;;5082499;28;20494;-45
2022/03/05 11:55:56;;;;;;;12.00;8.30;;;4.30;71.90;;;;;;5091275;28;20440;-47
2022/03/05 11:58:29;;;;;;;17.30;7.50;;;4.40;69.30;;;;;;5086607;28;21014;-45
2022/03/05 12:00:57;;;;;;;69.47;14.43;;;4.40;68.60;;;;;;5091472;28;20463;-45
2022/03/05 12:03:38;;;;;;;19.17;8.03;;;4.60;71.50;;;;;;5078375;28;20435;-46
2022/03/05 12:06:07;;;;;;;9.27;7.70;;;4.70;71.00;;;;;;5092136;28;20938;-47
2022/03/05 12:08:58;;;;;;;11.10;8.80;;;4.80;70.90;;;;;;5084953;28;20466;-46
2022/03/05 12:11:26;;;;;;;9.17;7.70;;;4.80;69.30;;;;;;5069916;28;20500;-45
2022/03/05 12:13:59;;;;;;;12.73;8.10;;;4.70;66.30;;;;;;5085261;28;20985;-45
2022/03/05 12:16:28;;;;;;;38.33;11.60;;;4.60;65.90;;;;;;5085224;28;20438;-45
2022/03/05 12:18:57;;;;;;;24.73;10.93;;;4.70;68.70;;;;;;5081802;28;20479;-46
2022/03/05 12:21:28;;;;;;;108.83;17.27;;;5.00;74.10;;;;;;5080065;28;20454;-45
2022/03/05 12:24:05;;;;;;;13.90;8.30;;;5.20;72.10;;;;;;5080546;28;21165;-46
2022/03/05 12:26:40;;;;;;;19.60;9.10;;;5.30;75.10;;;;;;5078123;28;20821;-46
2022/03/05 12:29:08;;;;;;;55.03;12.87;;;5.30;72.30;;;;;;5092179;28;20531;-46
2022/03/05 12:31:39;;;;;;;17.47;10.10;;;5.50;71.60;;;;;;5088853;28;20478;-47
2022/03/05 12:34:06;;;;;;;24.53;10.03;;;5.60;70.30;;;;;;5073509;28;20531;-47
2022/03/05 12:36:34;;;;;;;11.10;8.27;;;5.60;70.20;;;;;;5084328;28;20459;-48
2022/03/05 12:39:01;;;;;;;14.20;8.73;;;5.70;70.00;;;;;;5089955;28;20459;-46
2022/03/05 12:41:29;;;;;;;53.43;15.17;;;5.60;70.00;;;;;;5078146;28;20932;-46
2022/03/05 12:43:58;;;;;;;39.63;11.10;;;5.60;71.20;;;;;;5085804;28;20865;-46
2022/03/05 12:46:25;;;;;;;14.73;8.80;;;5.50;70.80;;;;;;5085057;28;20439;-46
2022/03/05 12:48:52;;;;;;;14.23;9.87;;;5.40;70.80;;;;;;5075971;28;20506;-50
2022/03/05 12:51:21;;;;;;;10.20;8.80;;;5.40;69.40;;;;;;5089898;28;20531;-47
2022/03/05 12:53:58;;;;;;;12.00;8.20;;;5.30;70.00;;;;;;5079608;28;20474;-48